Time;durP1;ratioP1;P1;durP2;ratioP2;P2;SDS_P1;SDS_P2;PMS_P1;PMS_P2;Temp;Humidity;BMP_temperature;BMP_pressure;BME280_temperature;BME280_humidity;BME280_pressure;Samples;Min_cycle;Max_cycle;Signal;HPM_P1;HPM_P2
2021/03/15 00:00:06;;;;;;;23.20;3.70;;;;;;;4.33;90.92;99362.63;5127646;27;20076;-75
2021/03/15 00:02:31;;;;;;;20.52;4.43;;;;;;;4.33;90.91;99355.34;5113927;27;20054;-75
2021/03/15 00:04:56;;;;;;;23.83;5.82;;;;;;;4.34;90.67;99356.97;5113361;27;20443;-76
2021/03/15 00:07:22;;;;;;;31.20;4.03;;;;;;;4.36;90.60;99359.38;5130817;27;20043;-76
2021/03/15 00:09:47;;;;;;;24.13;4.90;;;;;;;4.37;90.83;99347.53;5133916;27;20034;-75
2021/03/15 00:12:13;;;;;;;21.85;3.67;;;;;;;4.39;90.74;99350.75;5136130;27;20479;-75
2021/03/15 00:14:39;;;;;;;19.67;3.92;;;;;;;4.39;90.83;99359.69;5134893;27;20011;-76
2021/03/15 00:17:04;;;;;;;35.42;5.03;;;;;;;4.41;90.68;99344.00;5127891;27;20030;-75
2021/03/15 00:19:30;;;;;;;20.67;4.45;;;;;;;4.41;90.80;99346.72;5134374;27;20047;-75
2021/03/15 00:21:55;;;;;;;25.08;4.15;;;;;;;4.44;90.91;99348.06;5136300;27;20030;-75
2021/03/15 00:24:20;;;;;;;27.27;3.97;;;;;;;4.44;90.68;99334.56;5116463;27;20015;-75
2021/03/15 00:26:46;;;;;;;31.88;6.43;;;;;;;4.42;90.80;99337.56;5122236;27;20507;-75
2021/03/15 00:29:11;;;;;;;29.92;6.20;;;;;;;4.43;90.95;99339.16;5135906;27;20060;-75
2021/03/15 00:31:36;;;;;;;39.42;7.10;;;;;;;4.43;90.74;99333.75;5098578;27;20015;-75
2021/03/15 00:34:02;;;;;;;32.90;7.50;;;;;;;4.47;90.97;99339.44;5115360;27;20015;-75
2021/03/15 00:36:27;;;;;;;29.83;5.93;;;;;;;4.49;90.74;99336.47;5125535;27;20023;-75
2021/03/15 00:38:53;;;;;;;22.83;5.28;;;;;;;4.49;90.97;99337.28;5135692;27;20054;-75
2021/03/15 00:41:18;;;;;;;31.15;5.20;;;;;;;4.51;90.99;99339.72;5116304;27;20034;-75
2021/03/15 00:43:44;;;;;;;28.20;5.53;;;;;;;4.52;91.33;99339.44;5116988;27;20080;-75
2021/03/15 00:46:09;;;;;;;28.67;6.30;;;;;;;4.53;91.22;99351.03;5115851;27;20500;-75
2021/03/15 00:48:34;;;;;;;37.55;6.45;;;;;;;4.52;91.17;99344.03;5116422;27;20023;-75
2021/03/15 00:51:00;;;;;;;37.30;6.75;;;;;;;4.52;91.04;99338.63;5134445;27;20100;-76
2021/03/15 00:53:25;;;;;;;38.85;5.53;;;;;;;4.52;91.40;99341.31;5116600;27;20027;-75
2021/03/15 00:55:51;;;;;;;25.73;4.55;;;;;;;4.52;91.32;99341.31;5133363;27;20429;-75
2021/03/15 00:58:16;;;;;;;38.53;5.97;;;;;;;4.52;91.40;99335.94;5130041;27;20026;-75
2021/03/15 01:00:41;;;;;;;49.08;7.25;;;;;;;4.52;91.47;99336.72;5103867;27;20028;-75
2021/03/15 01:03:07;;;;;;;41.95;6.75;;;;;;;4.53;91.45;99337.53;5117222;27;20492;-75
2021/03/15 01:05:45;;;;;;;33.20;6.50;;;;;;;4.52;91.49;99336.72;5108729;28;20035;-75
2021/03/15 01:08:11;;;;;;;44.40;7.35;;;;;;;4.54;91.53;99344.56;5104083;27;20079;-75
2021/03/15 01:10:38;;;;;;;37.78;8.25;;;;;;;4.55;91.31;99332.69;5115615;27;20823;-75
2021/03/15 01:13:03;;;;;;;45.45;7.78;;;;;;;4.54;91.26;99337.28;5087674;28;20030;-75
2021/03/15 01:15:29;;;;;;;43.53;6.70;;;;;;;4.53;91.38;99340.25;5103772;28;20411;-75
2021/03/15 01:17:54;;;;;;;43.90;8.10;;;;;;;4.53;91.48;99338.38;5114230;27;20023;-75
2021/03/15 01:20:20;;;;;;;51.45;8.98;;;;;;;4.54;91.63;99333.78;5114817;27;20053;-74
2021/03/15 01:22:45;;;;;;;37.55;6.57;;;;;;;4.55;91.44;99340.78;5116241;27;20015;-75
2021/03/15 01:25:11;;;;;;;40.10;6.90;;;;;;;4.54;91.33;99331.09;5133860;27;20034;-74
2021/03/15 01:27:36;;;;;;;47.47;8.30;;;;;;;4.53;91.28;99329.44;5110612;27;20768;-75
2021/03/15 01:30:13;;;;;;;43.00;7.10;;;;;;;4.54;91.35;99333.78;5096745;27;20027;-75
2021/03/15 01:32:38;;;;;;;46.05;6.78;;;;;;;4.53;91.17;99332.13;5110712;27;20054;-75
2021/03/15 01:35:05;;;;;;;45.42;6.95;;;;;;;4.53;91.25;99337.53;5116360;27;20011;-75
2021/03/15 01:37:31;;;;;;;36.28;6.88;;;;;;;4.53;91.46;99332.13;5131992;27;20027;-75
2021/03/15 01:39:56;;;;;;;51.97;6.35;;;;;;;4.54;91.49;99333.78;5130285;27;20023;-75
2021/03/15 01:42:22;;;;;;;39.85;5.47;;;;;;;4.54;91.69;99328.38;5114105;27;20023;-75
2021/03/15 01:44:47;;;;;;;46.75;6.28;;;;;;;4.55;91.74;99335.38;5116008;27;20023;-75
2021/03/15 01:47:12;;;;;;;37.13;6.15;;;;;;;4.55;91.34;99333.50;5133265;27;20538;-75
2021/03/15 01:49:38;;;;;;;45.58;8.73;;;;;;;4.54;91.53;99334.59;5134340;27;20023;-76
2021/03/15 01:52:03;;;;;;;49.47;6.65;;;;;;;4.55;91.70;99344.28;5114510;27;20050;-75
2021/03/15 01:54:29;;;;;;;43.92;7.25;;;;;;;4.56;91.52;99335.13;5095349;28;20020;-74
2021/03/15 01:56:54;;;;;;;50.55;6.90;;;;;;;4.58;91.88;99351.03;5102263;27;20035;-75
2021/03/15 01:59:20;;;;;;;42.20;7.78;;;;;;;4.56;91.58;99342.44;5095213;28;20030;-75
2021/03/15 02:01:49;;;;;;;45.15;8.43;;;;;;;4.55;91.58;99343.47;5111420;27;20383;-74
2021/03/15 02:04:15;;;;;;;37.65;6.90;;;;;;;4.54;91.83;99345.38;5115735;27;20034;-74
2021/03/15 02:06:41;;;;;;;48.83;6.72;;;;;;;4.55;91.72;99344.28;5132315;27;20019;-74
2021/03/15 02:09:06;;;;;;;44.92;6.53;;;;;;;4.54;91.64;99341.88;5132534;27;20095;-76
2021/03/15 02:11:50;;;;;;;51.40;7.00;;;;;;;4.53;91.62;99337.53;5115580;27;20474;-76
2021/03/15 02:14:32;;;;;;;37.25;6.93;;;;;;;4.53;91.91;99342.94;5098904;27;20142;-76
2021/03/15 02:17:15;;;;;;;38.70;5.80;;;;;;;4.53;91.76;99337.53;5098326;27;20044;-75
2021/03/15 02:19:56;;;;;;;29.83;6.18;;;;;;;4.51;91.98;99334.31;5133592;27;20395;-75
2021/03/15 02:22:52;;;;;;;39.35;7.15;;;;;;;4.53;91.84;99326.75;5109109;27;20030;-76
2021/03/15 02:25:35;;;;;;;38.83;6.47;;;;;;;4.54;91.70;99328.38;5112029;27;20075;-75
2021/03/15 02:28:16;;;;;;;49.35;7.78;;;;;;;4.54;91.74;99326.50;5129340;27;20476;-75
2021/03/15 02:31:19;;;;;;;46.17;6.30;;;;;;;4.55;92.19;99319.19;5116858;27;20110;-76
2021/03/15 02:34:09;;;;;;;47.85;5.97;;;;;;;4.55;91.75;99314.59;5112340;27;20031;-75
2021/03/15 02:36:36;;;;;;;41.95;7.25;;;;;;;4.56;91.64;99321.63;5132174;27;20126;-75
2021/03/15 02:39:03;;;;;;;53.60;6.88;;;;;;;4.54;91.97;99328.38;5094732;27;20098;-75
2021/03/15 02:41:29;;;;;;;39.55;5.72;;;;;;;4.52;91.80;99325.13;5095056;27;20139;-75
2021/03/15 02:43:56;;;;;;;52.03;6.07;;;;;;;4.51;91.71;99320.81;5113981;27;20034;-75
2021/03/15 02:46:23;;;;;;;39.15;5.85;;;;;;;4.49;91.63;99326.47;5094584;28;20129;-75
2021/03/15 02:48:50;;;;;;;35.42;7.47;;;;;;;4.49;91.82;99331.06;5108072;27;20030;-75
2021/03/15 02:51:17;;;;;;;57.67;7.80;;;;;;;4.49;92.05;99322.97;5113561;27;20050;-75
2021/03/15 02:53:43;;;;;;;37.70;6.93;;;;;;;4.48;91.98;99324.88;5098924;27;20031;-75
2021/03/15 02:56:14;;;;;;;35.08;6.82;;;;;;;4.48;91.72;99321.38;5109622;27;20030;-75
2021/03/15 02:58:40;;;;;;;39.58;7.18;;;;;;;4.47;92.06;99319.72;5101774;28;20024;-74
2021/03/15 03:01:05;;;;;;;34.88;5.35;;;;;;;4.47;91.82;99323.22;5096668;27;20522;-75
2021/03/15 03:03:31;;;;;;;30.40;7.10;;;;;;;4.47;91.79;99330.53;5096817;27;20027;-74
2021/03/15 03:05:56;;;;;;;29.08;6.00;;;;;;;4.45;92.05;99328.91;5097131;27;20496;-74
2021/03/15 03:08:21;;;;;;;41.20;6.75;;;;;;;4.44;91.89;99332.69;5113466;27;20410;-75
2021/03/15 03:10:48;;;;;;;42.28;6.55;;;;;;;4.41;92.28;99322.44;5097858;27;20023;-75
2021/03/15 03:13:15;;;;;;;33.72;5.40;;;;;;;4.38;92.13;99322.97;5105879;28;20388;-75
2021/03/15 03:15:40;;;;;;;33.80;6.13;;;;;;;4.38;91.97;99331.06;5106803;28;20178;-76
2021/03/15 03:18:06;;;;;;;31.02;5.88;;;;;;;4.39;92.14;99332.69;5131351;27;20214;-76
2021/03/15 03:20:31;;;;;;;30.95;6.05;;;;;;;4.40;91.99;99333.50;5096629;28;20115;-76
2021/03/15 03:22:59;;;;;;;35.38;5.20;;;;;;;4.40;92.28;99339.69;5112495;28;20027;-76
2021/03/15 03:25:24;;;;;;;38.63;5.22;;;;;;;4.39;91.93;99332.69;5130017;27;20103;-75
2021/03/15 03:27:53;;;;;;;50.67;6.05;;;;;;;4.38;92.11;99333.75;5095664;28;20121;-76
2021/03/15 03:30:20;;;;;;;39.10;5.65;;;;;;;4.37;92.01;99329.44;5113580;28;20118;-76
2021/03/15 03:32:46;;;;;;;41.47;6.57;;;;;;;4.36;92.06;99338.59;5096357;28;20051;-75
2021/03/15 03:35:11;;;;;;;43.42;5.45;;;;;;;4.37;92.34;99342.94;5114134;28;20072;-76
2021/03/15 03:37:37;;;;;;;42.60;5.43;;;;;;;4.38;92.11;99341.84;5113128;27;20106;-76
2021/03/15 03:40:03;;;;;;;33.63;5.45;;;;;;;4.41;92.01;99345.91;5132546;28;20044;-76
2021/03/15 03:42:29;;;;;;;29.77;6.05;;;;;;;4.43;92.05;99347.25;5113152;28;20391;-76
2021/03/15 03:44:54;;;;;;;35.55;5.65;;;;;;;4.44;92.31;99356.97;5113832;28;20019;-76
2021/03/15 03:47:20;;;;;;;54.03;8.50;;;;;;;4.44;92.13;99350.75;5131837;28;20043;-76
2021/03/15 03:49:46;;;;;;;45.15;8.00;;;;;;;4.43;92.14;99351.84;5097303;28;20023;-75
2021/03/15 03:52:11;;;;;;;48.05;6.40;;;;;;;4.42;92.12;99353.75;5095025;28;20490;-75
2021/03/15 03:54:44;;;;;;;39.30;5.45;;;;;;;4.43;92.13;99346.44;5095594;28;20055;-76
2021/03/15 03:57:09;;;;;;;;;;;;;;;4.43;91.87;99349.16;5113684;28;20119;-74
2021/03/15 03:59:35;;;;;;;24.23;5.07;;;;;;;4.40;92.17;99358.59;5113486;28;20304;-75
2021/03/15 04:02:02;;;;;;;23.65;3.22;;;;;;;4.39;92.17;99361.53;5097512;28;20046;-75
2021/03/15 04:04:28;;;;;;;19.65;3.00;;;;;;;4.35;91.95;99363.97;5092308;28;20027;-74
2021/03/15 04:06:53;;;;;;;17.48;3.05;;;;;;;4.33;91.88;99363.44;5103941;28;20033;-77
2021/03/15 04:09:28;;;;;;;12.73;3.00;;;;;;;4.30;91.80;99360.47;5089619;28;20015;-74
2021/03/15 04:11:55;;;;;;;8.80;1.77;;;;;;;4.27;91.71;99361.81;5114489;28;20019;-74
2021/03/15 04:14:25;;;;;;;8.07;1.40;;;;;;;4.27;91.89;99366.41;5105606;28;20403;-75
2021/03/15 04:16:51;;;;;;;11.80;1.70;;;;;;;4.26;91.84;99364.78;5111611;28;20066;-75
2021/03/15 04:19:21;;;;;;;16.50;1.83;;;;;;;4.27;91.83;99371.78;5095553;27;20422;-75
2021/03/15 04:21:46;;;;;;;12.40;1.95;;;;;;;4.27;92.07;99374.50;5096542;28;20076;-76
2021/03/15 04:24:12;;;;;;;10.88;1.50;;;;;;;4.28;91.91;99378.78;5090380;28;20031;-75
2021/03/15 04:26:37;;;;;;;10.88;2.30;;;;;;;4.28;91.87;99376.09;5096557;28;20035;-75
2021/03/15 04:29:03;;;;;;;16.70;2.60;;;;;;;4.28;91.81;99378.78;5108878;27;20376;-75
2021/03/15 04:31:28;;;;;;;16.08;2.83;;;;;;;4.29;91.92;99383.94;5117526;27;20093;-75
2021/03/15 04:33:55;;;;;;;19.92;3.35;;;;;;;4.31;91.92;99386.34;5116177;27;20053;-75
2021/03/15 04:36:20;;;;;;;17.73;3.53;;;;;;;4.34;92.00;99383.16;5117184;27;20019;-74
2021/03/15 04:38:45;;;;;;;21.10;4.57;;;;;;;4.36;91.72;99392.56;5116567;27;20026;-74
2021/03/15 04:41:11;;;;;;;16.13;2.78;;;;;;;4.38;91.97;99389.63;5117546;27;20368;-74
2021/03/15 04:43:40;;;;;;;14.10;2.75;;;;;;;4.39;92.03;99388.53;5099200;27;20044;-75
2021/03/15 04:46:06;;;;;;;23.13;2.92;;;;;;;4.40;91.80;99396.38;5117444;27;20283;-75
2021/03/15 04:48:32;;;;;;;16.20;2.88;;;;;;;4.41;91.55;99395.28;5096108;27;20128;-75
2021/03/15 04:50:59;;;;;;;14.98;2.30;;;;;;;4.44;91.75;99400.13;5115255;27;20026;-75
2021/03/15 04:53:25;;;;;;;20.08;2.78;;;;;;;4.48;91.93;99400.44;5116439;27;20080;-75
2021/03/15 04:55:50;;;;;;;9.85;1.88;;;;;;;4.50;91.92;99405.53;5096335;27;20030;-75
2021/03/15 04:58:16;;;;;;;6.82;1.98;;;;;;;4.54;91.68;99409.34;5116057;27;20023;-75
2021/03/15 05:00:43;;;;;;;7.93;1.92;;;;;;;4.59;91.63;99406.66;5117063;27;20046;-75
2021/03/15 05:03:09;;;;;;;11.88;2.38;;;;;;;4.60;91.66;99413.66;5114542;27;20115;-75
2021/03/15 05:05:35;;;;;;;10.38;1.88;;;;;;;4.63;91.49;99413.94;5099788;27;20049;-75
2021/03/15 05:08:05;;;;;;;19.27;2.58;;;;;;;4.67;91.41;99414.22;5097743;27;20026;-75
2021/03/15 05:10:30;;;;;;;17.10;3.00;;;;;;;4.69;91.63;99412.03;5100169;27;20034;-75
2021/03/15 05:12:57;;;;;;;22.77;2.90;;;;;;;4.68;91.38;99413.13;5115766;27;20015;-75
2021/03/15 05:15:22;;;;;;;21.92;3.03;;;;;;;4.66;91.24;99418.81;5099194;27;20071;-75
2021/03/15 05:17:48;;;;;;;15.95;3.33;;;;;;;4.63;91.24;99424.72;5129090;27;20040;-76
2021/03/15 05:20:15;;;;;;;24.40;3.78;;;;;;;4.63;91.38;99423.91;5096537;27;20504;-76
2021/03/15 05:22:42;;;;;;;23.02;4.22;;;;;;;4.65;91.19;99427.97;5096172;27;20023;-75
2021/03/15 05:25:08;;;;;;;24.05;4.13;;;;;;;4.63;90.86;99421.22;5095701;28;20487;-75
2021/03/15 05:27:34;;;;;;;31.75;4.45;;;;;;;4.62;91.07;99433.09;5118711;27;20052;-75
2021/03/15 05:30:10;;;;;;;27.95;4.57;;;;;;;4.60;91.10;99435.25;5114039;27;20023;-75
2021/03/15 05:32:37;;;;;;;36.95;4.07;;;;;;;4.58;91.23;99446.34;5117305;27;20027;-74
2021/03/15 05:35:04;;;;;;;39.35;4.10;;;;;;;4.58;91.26;99446.34;5114783;27;20475;-75
2021/03/15 05:37:30;;;;;;;26.50;3.60;;;;;;;4.59;91.13;99447.94;5132858;27;20475;-75
2021/03/15 05:39:55;;;;;;;51.83;5.03;;;;;;;4.58;91.09;99448.19;5133061;27;20058;-75
2021/03/15 05:42:20;;;;;;;35.75;4.30;;;;;;;4.56;91.03;99448.47;5114737;27;20425;-75
2021/03/15 05:45:21;;;;;;;16.75;2.78;;;;;;;4.54;91.42;99457.91;5133183;27;20526;-75
2021/03/15 05:48:12;;;;;;;11.25;2.60;;;;;;;4.53;91.19;99462.50;5115707;27;20389;-74
2021/03/15 05:50:53;;;;;;;7.93;2.75;;;;;;;4.56;91.23;99466.56;5130661;27;20019;-75
2021/03/15 05:53:30;;;;;;;20.08;3.90;;;;;;;4.56;91.11;99461.16;5112467;27;20139;-75
2021/03/15 05:56:13;;;;;;;8.85;2.33;;;;;;;4.57;91.11;99468.19;5114005;27;20062;-75
2021/03/15 05:58:58;;;;;;;10.13;2.50;;;;;;;4.61;91.13;99475.50;5112023;27;20038;-74
2021/03/15 06:01:31;;;;;;;7.72;2.30;;;;;;;4.64;91.10;99476.84;5129634;27;20125;-75
2021/03/15 06:04:41;;;;;;;10.35;3.10;;;;;;;4.68;91.08;99477.91;5113479;27;20051;-75
2021/03/15 06:07:08;;;;;;;11.30;1.98;;;;;;;4.71;91.21;99482.78;5083590;27;20468;-75
2021/03/15 06:09:37;;;;;;;11.77;2.40;;;;;;;4.75;91.06;99489.28;5106051;27;20055;-76
2021/03/15 06:12:05;;;;;;;7.55;2.40;;;;;;;4.79;91.06;99492.25;5093497;27;20517;-75
2021/03/15 06:14:30;;;;;;;8.85;2.08;;;;;;;4.81;90.99;99490.09;5125172;27;20064;-75
2021/03/15 06:16:55;;;;;;;11.50;1.95;;;;;;;4.81;91.01;99496.31;5109131;27;20391;-75
2021/03/15 06:19:21;;;;;;;17.65;2.67;;;;;;;4.82;90.96;99495.22;5095828;27;20034;-75
2021/03/15 06:21:47;;;;;;;8.57;1.63;;;;;;;4.84;90.83;99500.38;5095600;27;20027;-75
2021/03/15 06:24:12;;;;;;;12.35;2.38;;;;;;;4.85;90.66;99502.78;5095220;27;20019;-75
2021/03/15 06:26:38;;;;;;;8.55;2.05;;;;;;;4.87;90.82;99505.22;5106657;27;20084;-75
2021/03/15 06:29:04;;;;;;;11.95;2.83;;;;;;;4.89;90.70;99513.88;5092077;27;20126;-75
2021/03/15 06:31:30;;;;;;;19.48;3.28;;;;;;;4.92;90.75;99518.75;5102292;27;20106;-75
2021/03/15 06:33:57;;;;;;;10.70;2.97;;;;;;;4.94;90.67;99515.75;5096629;27;20460;-75
2021/03/15 06:36:22;;;;;;;23.65;3.90;;;;;;;4.93;90.37;99524.94;5095495;27;20045;-75
2021/03/15 06:38:48;;;;;;;17.30;3.53;;;;;;;4.95;90.60;99530.91;5097481;28;20379;-75
2021/03/15 06:41:13;;;;;;;14.82;5.50;;;;;;;4.96;90.82;99529.81;5087287;27;20031;-75
2021/03/15 06:43:40;;;;;;;14.02;5.53;;;;;;;4.91;90.38;99538.72;5097924;27;20023;-75
2021/03/15 06:46:05;;;;;;;11.88;5.45;;;;;;;4.87;90.50;99537.63;5092711;28;20381;-75
2021/03/15 06:48:30;;;;;;;18.17;6.15;;;;;;;4.82;90.46;99543.81;5109972;28;20065;-75
2021/03/15 06:50:56;;;;;;;15.70;8.27;;;;;;;4.80;90.53;99543.28;5111915;28;20027;-76
2021/03/15 06:53:22;;;;;;;18.17;8.50;;;;;;;4.75;90.17;99547.88;5109457;28;20092;-75
2021/03/15 06:55:49;;;;;;;18.45;6.60;;;;;;;4.74;90.39;99551.63;5112071;28;20023;-76
2021/03/15 06:58:18;;;;;;;14.40;7.90;;;;;;;4.69;90.34;99557.81;5101447;28;20487;-76
2021/03/15 07:00:43;;;;;;;12.57;5.80;;;;;;;4.66;90.30;99558.34;5106926;28;20023;-75
2021/03/15 07:03:09;;;;;;;14.85;5.97;;;;;;;4.64;90.16;99563.22;5107671;28;20038;-75
2021/03/15 07:05:34;;;;;;;12.07;6.57;;;;;;;4.61;90.12;99559.16;5087407;28;20023;-76
2021/03/15 07:08:00;;;;;;;10.52;5.80;;;;;;;4.59;90.16;99580.19;5091948;28;20032;-75
2021/03/15 07:10:30;;;;;;;14.32;6.03;;;;;;;4.58;90.01;99572.34;5104526;28;20027;-75
2021/03/15 07:13:09;;;;;;;12.70;5.38;;;;;;;4.58;90.02;99588.53;5093000;28;20469;-75
2021/03/15 07:15:35;;;;;;;15.65;6.25;;;;;;;4.59;90.28;99590.19;5109470;28;20012;-75
2021/03/15 07:18:17;;;;;;;14.90;6.68;;;;;;;4.56;90.22;99598.81;5104256;28;20482;-75
2021/03/15 07:20:51;;;;;;;12.27;5.85;;;;;;;4.55;89.93;99605.28;5086052;28;20027;-75
2021/03/15 07:23:43;;;;;;;10.73;5.95;;;;;;;4.56;90.26;99606.91;5102984;28;20103;-75
2021/03/15 07:26:24;;;;;;;9.98;4.80;;;;;;;4.59;90.05;99622.56;5106160;28;20065;-74
2021/03/15 07:28:50;;;;;;;9.07;4.60;;;;;;;4.68;90.20;99624.50;5099161;28;20035;-75
2021/03/15 07:31:27;;;;;;;8.38;4.43;;;;;;;4.77;89.96;99630.19;5103487;28;20027;-75
2021/03/15 07:33:56;;;;;;;11.80;4.70;;;;;;;4.81;89.83;99635.91;5102582;28;20385;-75
2021/03/15 07:36:25;;;;;;;9.30;4.70;;;;;;;4.80;89.64;99640.50;5108797;28;20028;-75
2021/03/15 07:38:51;;;;;;;7.38;4.57;;;;;;;4.80;89.65;99643.19;5105246;28;20076;-75
2021/03/15 07:41:17;;;;;;;8.25;4.63;;;;;;;4.78;89.73;99642.63;5108321;28;20036;-74
2021/03/15 07:43:42;;;;;;;5.95;4.32;;;;;;;4.80;89.88;99645.91;5108429;28;20020;-74
2021/03/15 07:46:24;;;;;;;7.35;5.18;;;;;;;4.86;89.58;99649.44;5108461;28;20058;-75
2021/03/15 07:48:49;;;;;;;10.82;5.22;;;;;;;4.89;89.55;99655.09;5103849;28;20046;-74
2021/03/15 07:51:27;;;;;;;7.68;4.40;;;;;;;4.83;89.62;99661.56;5092138;28;20461;-75
2021/03/15 07:54:04;;;;;;;8.98;4.20;;;;;;;4.74;89.29;99663.13;5096584;28;20409;-75
2021/03/15 07:56:30;;;;;;;9.20;3.78;;;;;;;4.78;89.47;99672.34;5113720;28;20032;-74
2021/03/15 07:58:55;;;;;;;7.32;3.75;;;;;;;4.88;89.72;99679.66;5112959;28;20046;-75
2021/03/15 08:01:21;;;;;;;5.72;3.92;;;;;;;4.99;89.60;99681.34;5115557;28;20043;-75
2021/03/15 08:03:46;;;;;;;8.50;4.20;;;;;;;5.07;89.11;99691.66;5095447;28;20019;-74
2021/03/15 08:06:11;;;;;;;8.23;4.13;;;;;;;5.10;89.13;99704.63;5113442;28;20393;-75
2021/03/15 08:08:37;;;;;;;6.90;3.97;;;;;;;5.14;89.28;99699.50;5113929;28;20034;-75
2021/03/15 08:11:04;;;;;;;6.25;3.67;;;;;;;5.20;89.22;99701.13;5111177;28;20051;-75
2021/03/15 08:13:30;;;;;;;5.95;3.35;;;;;;;5.25;89.33;99714.66;5113780;28;20063;-74
2021/03/15 08:15:59;;;;;;;6.68;2.45;;;;;;;5.24;88.99;99723.84;5113944;28;20468;-75
2021/03/15 08:18:26;;;;;;;4.47;2.80;;;;;;;5.27;89.17;99728.72;5109564;28;20043;-75
2021/03/15 08:21:05;;;;;;;4.35;2.50;;;;;;;5.28;88.96;99726.84;5104480;28;20020;-74
2021/03/15 08:23:31;;;;;;;4.72;2.40;;;;;;;5.38;88.99;99728.78;5096473;28;20023;-74
2021/03/15 08:26:04;;;;;;;7.60;4.28;;;;;;;5.49;88.79;99739.34;5110141;28;20016;-74
2021/03/15 08:28:33;;;;;;;3.92;3.20;;;;;;;5.58;88.84;99747.75;5122238;27;20027;-74
2021/03/15 08:31:02;;;;;;;4.93;2.83;;;;;;;5.66;88.85;99755.34;5109250;28;20077;-74
2021/03/15 08:33:28;;;;;;;4.20;1.95;;;;;;;5.72;88.48;99765.06;5094458;28;20028;-74
2021/03/15 08:35:54;;;;;;;6.80;3.35;;;;;;;5.74;88.35;99762.13;5112216;28;20016;-74
2021/03/15 08:38:32;;;;;;;7.80;4.20;;;;;;;5.81;88.65;99767.25;5106326;28;20102;-74
2021/03/15 08:41:07;;;;;;;4.75;2.28;;;;;;;5.90;88.39;99776.50;5092493;28;20027;-75
2021/03/15 08:43:39;;;;;;;5.90;2.50;;;;;;;5.95;88.43;99782.75;5111383;27;20381;-74
2021/03/15 08:46:15;;;;;;;5.07;2.33;;;;;;;5.94;88.05;99797.34;5101984;28;20058;-74
2021/03/15 08:48:40;;;;;;;3.55;2.83;;;;;;;5.90;87.90;99804.34;5096332;28;20024;-74
2021/03/15 08:51:13;;;;;;;7.45;3.05;;;;;;;5.82;88.03;99806.75;5114086;27;20034;-75
2021/03/15 08:53:42;;;;;;;4.63;2.78;;;;;;;5.77;87.88;99805.66;5106494;27;20049;-74
2021/03/15 08:56:10;;;;;;;3.00;1.77;;;;;;;5.71;88.03;99812.13;5106453;28;20022;-75
2021/03/15 08:58:39;;;;;;;2.53;1.80;;;;;;;5.74;87.92;99811.59;5106503;27;20055;-75
2021/03/15 09:01:12;;;;;;;3.58;2.50;;;;;;;5.71;87.81;99814.84;5090139;28;20055;-75
2021/03/15 09:03:53;;;;;;;2.72;1.40;;;;;;;5.62;87.69;99824.56;5107802;28;20032;-74
2021/03/15 09:06:37;;;;;;;7.40;3.92;;;;;;;5.56;87.91;99828.28;5108453;27;20027;-74
2021/03/15 09:09:06;;;;;;;3.95;2.80;;;;;;;5.50;87.68;99840.16;5108332;28;20472;-75
2021/03/15 09:11:34;;;;;;;3.38;1.95;;;;;;;5.50;87.65;99848.28;5108284;28;20032;-74
2021/03/15 09:16:41;;;;;;;2.95;1.83;;;;;;;5.53;87.42;99851.25;5113983;28;20431;-73
2021/03/15 09:19:26;;;;;;;1.40;1.00;;;;;;;5.61;87.51;99849.94;5103737;28;20026;-74
2021/03/15 09:22:02;;;;;;;1.02;0.75;;;;;;;5.69;87.25;99857.56;5110377;27;20106;-74
2021/03/15 09:24:45;;;;;;;1.20;0.80;;;;;;;5.76;87.06;99863.53;5100133;28;20027;-74
2021/03/15 09:27:23;;;;;;;0.52;0.50;;;;;;;5.87;87.34;99863.59;5106634;28;20117;-74
2021/03/15 09:30:14;;;;;;;0.90;0.63;;;;;;;6.01;87.10;99864.75;5111481;28;20077;-73
2021/03/15 09:32:40;;;;;;;0.77;0.65;;;;;;;6.23;86.93;99878.06;5110320;28;20023;-75
2021/03/15 09:35:31;;;;;;;0.73;0.45;;;;;;;6.45;86.71;99880.53;5107544;28;20012;-74
2021/03/15 09:38:17;;;;;;;1.27;0.70;;;;;;;6.69;86.40;99880.03;5108803;28;20047;-75
2021/03/15 09:40:49;;;;;;;0.70;0.50;;;;;;;6.88;86.19;99883.81;5109792;28;20484;-75
2021/03/15 09:43:21;;;;;;;2.90;1.08;;;;;;;7.03;86.16;99894.63;5108255;28;20031;-74
2021/03/15 09:45:53;;;;;;;1.65;0.68;;;;;;;7.10;85.81;99903.31;5107887;28;20040;-74
2021/03/15 09:48:20;;;;;;;1.52;0.90;;;;;;;6.99;85.83;99907.09;5107862;28;20538;-75
2021/03/15 09:50:49;;;;;;;5.05;0.60;;;;;;;6.88;85.47;99900.06;5113252;28;20364;-74
2021/03/15 09:53:16;;;;;;;2.05;0.50;;;;;;;6.83;85.64;99900.06;5108464;28;20024;-75
2021/03/15 09:55:41;;;;;;;1.08;0.52;;;;;;;6.85;85.78;99906.03;5107836;28;20081;-75
2021/03/15 09:58:08;;;;;;;0.45;0.30;;;;;;;6.82;85.37;99914.66;5105013;27;20023;-74
2021/03/15 10:00:33;;;;;;;0.63;0.43;;;;;;;6.80;85.46;99920.38;5106914;28;20400;-74
2021/03/15 10:02:59;;;;;;;8.57;3.53;;;;;;;6.71;85.33;99927.44;5105093;28;20024;-75
2021/03/15 10:05:25;;;;;;;3.35;2.28;;;;;;;6.62;85.37;99926.31;5111829;28;20128;-75
2021/03/15 10:07:50;;;;;;;2.25;1.50;;;;;;;6.60;85.29;99929.31;5108336;28;20027;-75
2021/03/15 10:10:20;;;;;;;4.03;2.00;;;;;;;6.57;85.31;99932.53;5111277;28;20520;-74
2021/03/15 10:12:50;;;;;;;3.40;1.98;;;;;;;6.58;85.18;99927.94;5093234;28;20023;-75
2021/03/15 10:15:17;;;;;;;1.63;0.82;;;;;;;6.57;85.04;99939.84;5108069;27;21919;-74
2021/03/15 10:17:43;;;;;;;3.47;1.90;;;;;;;6.56;85.04;99936.31;5110143;28;20031;-74
2021/03/15 10:20:10;;;;;;;3.58;1.00;;;;;;;6.51;84.88;99939.00;5108752;28;20031;-75
2021/03/15 10:22:35;;;;;;;2.85;0.95;;;;;;;6.45;84.46;99946.31;5105275;28;20484;-74
2021/03/15 10:25:01;;;;;;;0.60;0.60;;;;;;;6.40;84.47;99945.50;5110150;28;20073;-75
2021/03/15 10:27:28;;;;;;;0.60;0.60;;;;;;;6.40;84.54;99953.63;5081649;28;20051;-75
2021/03/15 10:30:01;;;;;;;0.90;0.50;;;;;;;6.40;84.26;99959.84;5092098;28;20042;-75
2021/03/15 10:32:29;;;;;;;2.25;1.75;;;;;;;6.53;84.49;99953.09;5102503;28;20031;-75
2021/03/15 10:34:58;;;;;;;11.18;7.88;;;;;;;6.70;84.39;99965.59;5108524;28;20016;-75
2021/03/15 10:37:24;;;;;;;7.47;5.03;;;;;;;6.79;83.63;99963.97;5093527;28;20030;-75
2021/03/15 10:39:51;;;;;;;3.47;2.33;;;;;;;6.77;83.60;99969.69;5088993;28;20016;-74
2021/03/15 10:42:17;;;;;;;4.05;2.47;;;;;;;6.77;83.48;99969.69;5088775;28;20492;-75
2021/03/15 10:44:42;;;;;;;3.03;1.70;;;;;;;6.78;83.57;99987.56;5108632;28;20457;-74
2021/03/15 10:47:10;;;;;;;5.45;2.17;;;;;;;6.82;83.15;99988.66;5089799;28;20096;-74
2021/03/15 10:49:36;;;;;;;3.08;2.08;;;;;;;6.81;83.07;99984.31;5106992;28;20511;-74
2021/03/15 10:52:01;;;;;;;4.45;3.03;;;;;;;6.88;82.97;99998.41;5104693;28;20024;-74
2021/03/15 10:54:33;;;;;;;5.03;3.40;;;;;;;6.94;82.60;100001.94;5105251;28;20359;-74
2021/03/15 10:57:08;;;;;;;5.93;3.15;;;;;;;7.09;82.82;100001.13;5109547;28;20023;-75
2021/03/15 10:59:33;;;;;;;1.17;0.70;;;;;;;7.25;82.42;100019.03;5106237;28;20031;-74
2021/03/15 11:01:59;;;;;;;0.82;0.60;;;;;;;7.14;81.72;100011.16;5110043;28;20495;-74
2021/03/15 11:04:31;;;;;;;2.92;2.60;;;;;;;7.06;81.69;100029.59;5106958;28;20028;-75
2021/03/15 11:06:56;;;;;;;;;;;;;;;7.04;81.05;100025.53;5088433;28;20076;-74
2021/03/15 11:09:22;;;;;;;6.13;5.47;;;;;;;7.00;81.16;100036.09;5108239;28;19994;-74
2021/03/15 11:11:54;;;;;;;1.60;1.38;;;;;;;6.94;80.93;100034.47;5103616;28;20027;-75
2021/03/15 11:14:19;;;;;;;;;;;;;;;6.88;81.14;100040.97;5090688;28;20102;-74
2021/03/15 11:16:45;;;;;;;3.28;2.15;;;;;;;6.86;81.24;100027.66;5101086;28;20341;-75
2021/03/15 11:19:12;;;;;;;3.47;2.20;;;;;;;6.66;80.90;100028.44;5107163;28;20055;-75
2021/03/15 11:21:44;;;;;;;0.80;0.80;;;;;;;6.53;81.00;100056.00;5091960;28;20494;-75
2021/03/15 11:24:10;;;;;;;1.17;1.08;;;;;;;6.36;80.59;100050.00;5107191;28;20036;-76
2021/03/15 11:26:52;;;;;;;3.70;2.10;;;;;;;6.18;80.92;100054.75;5108034;28;20073;-74
2021/03/15 11:29:20;;;;;;;6.53;5.85;;;;;;;6.09;81.07;100067.16;5088744;28;20034;-75
2021/03/15 11:31:49;;;;;;;5.07;3.70;;;;;;;6.01;80.83;100070.38;5108701;28;20076;-74
2021/03/15 11:34:20;;;;;;;4.25;2.97;;;;;;;5.91;80.96;100067.56;5103244;28;20059;-74
2021/03/15 11:36:46;;;;;;;8.88;6.18;;;;;;;5.78;80.76;100076.91;5110257;28;20099;-74
2021/03/15 11:39:12;;;;;;;9.23;5.57;;;;;;;5.68;80.91;100071.47;5107243;28;20023;-75
2021/03/15 11:41:38;;;;;;;6.82;3.25;;;;;;;5.65;81.17;100072.78;5091747;28;20028;-75
2021/03/15 11:44:04;;;;;;;16.52;12.40;;;;;;;5.66;81.16;100081.72;5109918;28;20106;-75
2021/03/15 11:46:29;;;;;;;28.17;19.80;;;;;;;5.69;81.32;100078.47;5094546;28;761075;-75